Time;durP1;ratioP1;P1;durP2;ratioP2;P2;SDS_P1;SDS_P2;PMS_P1;PMS_P2;Temp;Humidity;BMP_temperature;BMP_pressure;BME280_temperature;BME280_humidity;BME280_pressure;Samples;Min_cycle;Max_cycle;Signal;HPM_P1;HPM_P2
2022/07/22 00:00:01;;;;;;;19.2;17.4;;;;;;;17.14;77.33105;95715.3;;;;
2022/07/22 00:01:04;;;;;;;19.2;17.4;;;;;;;17.14;77.33105;95715.3;;;;
2022/07/22 00:02:05;;;;;;;19.2;17.4;;;;;;;17.14;77.33105;95715.3;;;;
2022/07/22 00:03:05;;;;;;;19.2;17.4;;;;;;;17.14;77.33105;95715.3;;;;
2022/07/22 00:04:06;;;;;;;19.2;17.4;;;;;;;17.14;77.33105;95715.3;;;;
2022/07/22 00:05:06;;;;;;;19.2;17.4;;;;;;;17.14;77.33105;95715.3;;;;
2022/07/22 00:06:08;;;;;;;19.2;17.4;;;;;;;17.14;77.33105;95715.3;;;;
2022/07/22 00:07:08;;;;;;;19.2;17.4;;;;;;;17.14;77.33105;95715.3;;;;
2022/07/22 00:08:09;;;;;;;19.2;17.4;;;;;;;17.14;77.33105;95715.3;;;;
2022/07/22 00:09:10;;;;;;;18.7;16.85;;;;;;;17.13;77.52734;95697.63;;;;
2022/07/22 00:10:10;;;;;;;18.7;16.85;;;;;;;17.13;77.52734;95697.63;;;;
2022/07/22 00:11:11;;;;;;;18.7;16.85;;;;;;;17.13;77.52734;95697.63;;;;
2022/07/22 00:12:11;;;;;;;18.7;16.85;;;;;;;17.13;77.52734;95697.63;;;;
2022/07/22 00:13:12;;;;;;;18.7;16.85;;;;;;;17.13;77.52734;95697.63;;;;
2022/07/22 00:14:13;;;;;;;18.7;16.85;;;;;;;17.13;77.52734;95697.63;;;;
2022/07/22 00:15:14;;;;;;;18.7;16.85;;;;;;;17.13;77.52734;95697.63;;;;
2022/07/22 00:16:14;;;;;;;18.7;16.85;;;;;;;17.13;77.52734;95697.63;;;;
2022/07/22 00:17:15;;;;;;;18.7;16.85;;;;;;;17.13;77.52734;95697.63;;;;
2022/07/22 00:18:16;;;;;;;18.7;16.85;;;;;;;17.13;77.52734;95697.63;;;;
2022/07/22 00:19:16;;;;;;;18.7;16.85;;;;;;;17.13;77.52734;95697.63;;;;
2022/07/22 00:20:17;;;;;;;17.85;16.25;;;;;;;17.1;77.68262;95690.23;;;;
2022/07/22 00:21:17;;;;;;;17.85;16.25;;;;;;;17.1;77.68262;95690.23;;;;
2022/07/22 00:22:18;;;;;;;17.85;16.25;;;;;;;17.1;77.68262;95690.23;;;;
2022/07/22 00:23:18;;;;;;;17.85;16.25;;;;;;;17.1;77.68262;95690.23;;;;
2022/07/22 00:24:19;;;;;;;17.85;16.25;;;;;;;17.1;77.68262;95690.23;;;;
2022/07/22 00:25:19;;;;;;;17.85;16.25;;;;;;;17.1;77.68262;95690.23;;;;
2022/07/22 00:26:20;;;;;;;17.85;16.25;;;;;;;17.1;77.68262;95690.23;;;;
2022/07/22 00:27:21;;;;;;;17.85;16.25;;;;;;;17.1;77.68262;95690.23;;;;
2022/07/22 00:28:21;;;;;;;17.85;16.25;;;;;;;17.1;77.68262;95690.23;;;;
2022/07/22 00:29:21;;;;;;;17.85;16.25;;;;;;;17.1;77.68262;95690.23;;;;
2022/07/22 00:30:22;;;;;;;17.85;16.25;;;;;;;17.1;77.68262;95690.23;;;;
2022/07/22 00:31:23;;;;;;;17.15;15.55;;;;;;;17.12;77.78613;95686.67;;;;
2022/07/22 00:32:23;;;;;;;17.15;15.55;;;;;;;17.12;77.78613;95686.67;;;;
2022/07/22 00:33:24;;;;;;;17.15;15.55;;;;;;;17.12;77.78613;95686.67;;;;
2022/07/22 00:34:24;;;;;;;17.15;15.55;;;;;;;17.12;77.78613;95686.67;;;;
2022/07/22 00:35:25;;;;;;;17.15;15.55;;;;;;;17.12;77.78613;95686.67;;;;
2022/07/22 00:36:25;;;;;;;17.15;15.55;;;;;;;17.12;77.78613;95686.67;;;;
2022/07/22 00:37:26;;;;;;;17.15;15.55;;;;;;;17.12;77.78613;95686.67;;;;
2022/07/22 00:38:26;;;;;;;17.15;15.55;;;;;;;17.12;77.78613;95686.67;;;;
2022/07/22 00:39:27;;;;;;;17.15;15.55;;;;;;;17.12;77.78613;95686.67;;;;
2022/07/22 00:40:27;;;;;;;17.15;15.55;;;;;;;17.12;77.78613;95686.67;;;;
2022/07/22 00:41:28;;;;;;;16.9;15.3;;;;;;;17.09;77.88867;95680.58;;;;
2022/07/22 00:42:28;;;;;;;16.9;15.3;;;;;;;17.09;77.88867;95680.58;;;;
2022/07/22 00:43:29;;;;;;;16.9;15.3;;;;;;;17.09;77.88867;95680.58;;;;
2022/07/22 00:44:48;;;;;;;16.9;15.3;;;;;;;17.09;77.88867;95680.58;;;;
2022/07/22 00:45:49;;;;;;;16.9;15.3;;;;;;;17.09;77.88867;95680.58;;;;
2022/07/22 00:46:50;;;;;;;16.9;15.3;;;;;;;17.09;77.88867;95680.58;;;;
2022/07/22 00:47:50;;;;;;;16.9;15.3;;;;;;;17.09;77.88867;95680.58;;;;
2022/07/22 00:48:51;;;;;;;16.9;15.3;;;;;;;17.09;77.88867;95680.58;;;;
2022/07/22 00:49:52;;;;;;;16.9;15.3;;;;;;;17.09;77.88867;95680.58;;;;
2022/07/22 00:50:52;;;;;;;16.9;15.3;;;;;;;17.09;77.88867;95680.58;;;;
2022/07/22 00:51:53;;;;;;;16.9;15.3;;;;;;;17.09;77.88867;95680.58;;;;
2022/07/22 00:52:53;;;;;;;16.9;15.3;;;;;;;17.09;77.88867;95680.58;;;;
2022/07/22 00:53:54;;;;;;;16.9;15.3;;;;;;;17.09;77.88867;95680.58;;;;
2022/07/22 00:54:55;;;;;;;16.9;15.3;;;;;;;17.09;77.88867;95680.58;;;;
2022/07/22 00:55:56;;;;;;;16.9;15.3;;;;;;;17.09;77.88867;95680.58;;;;
2022/07/22 00:56:56;;;;;;;16.9;15.3;;;;;;;17.09;77.88867;95680.58;;;;
2022/07/22 00:57:57;;;;;;;16.9;15.3;;;;;;;17.09;77.88867;95680.58;;;;
2022/07/22 00:58:58;;;;;;;16.9;15.3;;;;;;;17.09;77.88867;95680.58;;;;
2022/07/22 01:00:03;;;;;;;16.9;15.3;;;;;;;17.09;77.88867;95680.58;;;;
2022/07/22 01:01:07;;;;;;;16.9;15.3;;;;;;;17.09;77.88867;95680.58;;;;
2022/07/22 01:02:08;;;;;;;16.9;15.3;;;;;;;17.09;77.88867;95680.58;;;;
2022/07/22 01:03:08;;;;;;;15.7;14.2;;;;;;;17.13;77.99512;95663.85;;;;
2022/07/22 01:04:09;;;;;;;15.7;14.2;;;;;;;17.13;77.99512;95663.85;;;;
2022/07/22 01:05:10;;;;;;;15.7;14.2;;;;;;;17.13;77.99512;95663.85;;;;
2022/07/22 01:06:11;;;;;;;15.7;14.2;;;;;;;17.13;77.99512;95663.85;;;;
2022/07/22 01:07:11;;;;;;;15.7;14.2;;;;;;;17.13;77.99512;95663.85;;;;
2022/07/22 01:08:12;;;;;;;15.7;14.2;;;;;;;17.13;77.99512;95663.85;;;;
2022/07/22 01:09:13;;;;;;;15.7;14.2;;;;;;;17.13;77.99512;95663.85;;;;
2022/07/22 01:10:14;;;;;;;15.7;14.2;;;;;;;17.13;77.99512;95663.85;;;;
2022/07/22 01:11:14;;;;;;;15.7;14.2;;;;;;;17.13;77.99512;95663.85;;;;
2022/07/22 01:12:18;;;;;;;15.7;14.2;;;;;;;17.13;77.99512;95663.85;;;;
2022/07/22 01:13:18;;;;;;;15.75;14.25;;;;;;;17.19;77.93945;95659.79;;;;
2022/07/22 01:14:19;;;;;;;15.75;14.25;;;;;;;17.19;77.93945;95659.79;;;;
2022/07/22 01:15:20;;;;;;;15.75;14.25;;;;;;;17.19;77.93945;95659.79;;;;
2022/07/22 01:16:20;;;;;;;15.75;14.25;;;;;;;17.19;77.93945;95659.79;;;;
2022/07/22 01:17:21;;;;;;;15.75;14.25;;;;;;;17.19;77.93945;95659.79;;;;
2022/07/22 01:18:22;;;;;;;15.75;14.25;;;;;;;17.19;77.93945;95659.79;;;;
2022/07/22 01:19:23;;;;;;;15.75;14.25;;;;;;;17.19;77.93945;95659.79;;;;
2022/07/22 01:20:23;;;;;;;15.75;14.25;;;;;;;17.19;77.93945;95659.79;;;;
2022/07/22 01:21:24;;;;;;;15.75;14.25;;;;;;;17.19;77.93945;95659.79;;;;
2022/07/22 01:22:24;;;;;;;15.75;14.25;;;;;;;17.19;77.93945;95659.79;;;;
2022/07/22 01:23:26;;;;;;;15.75;14.25;;;;;;;17.19;77.93945;95659.79;;;;
2022/07/22 01:24:27;;;;;;;15.85;14.4;;;;;;;17.14;77.95313;95656.62;;;;
2022/07/22 01:25:28;;;;;;;15.85;14.4;;;;;;;17.14;77.95313;95656.62;;;;
2022/07/22 01:26:28;;;;;;;15.85;14.4;;;;;;;17.14;77.95313;95656.62;;;;
2022/07/22 01:27:29;;;;;;;15.85;14.4;;;;;;;17.14;77.95313;95656.62;;;;
2022/07/22 01:28:30;;;;;;;15.85;14.4;;;;;;;17.14;77.95313;95656.62;;;;
2022/07/22 01:29:31;;;;;;;15.85;14.4;;;;;;;17.14;77.95313;95656.62;;;;
2022/07/22 01:30:32;;;;;;;15.85;14.4;;;;;;;17.14;77.95313;95656.62;;;;
2022/07/22 01:31:32;;;;;;;15.85;14.4;;;;;;;17.14;77.95313;95656.62;;;;
2022/07/22 01:32:33;;;;;;;15.85;14.4;;;;;;;17.14;77.95313;95656.62;;;;
2022/07/22 01:33:34;;;;;;;15.85;14.4;;;;;;;17.14;77.95313;95656.62;;;;
2022/07/22 01:34:34;;;;;;;15.85;14.4;;;;;;;17.14;77.95313;95656.62;;;;
2022/07/22 01:35:35;;;;;;;15.85;14.4;;;;;;;17.14;77.95313;95656.62;;;;
2022/07/22 01:36:35;;;;;;;15.85;14.4;;;;;;;17.14;77.95313;95656.62;;;;
2022/07/22 01:37:36;;;;;;;15.85;14.4;;;;;;;17.14;77.95313;95656.62;;;;
2022/07/22 01:38:36;;;;;;;15.85;14.4;;;;;;;17.14;77.95313;95656.62;;;;
2022/07/22 01:39:38;;;;;;;15.85;14.4;;;;;;;17.14;77.95313;95656.62;;;;
2022/07/22 01:40:38;;;;;;;15.85;14.4;;;;;;;17.14;77.95313;95656.62;;;;
2022/07/22 01:41:39;;;;;;;15.85;14.4;;;;;;;17.14;77.95313;95656.62;;;;
2022/07/22 01:42:40;;;;;;;15.85;14.4;;;;;;;17.14;77.95313;95656.62;;;;
2022/07/22 01:43:41;;;;;;;15.85;14.4;;;;;;;17.14;77.95313;95656.62;;;;
2022/07/22 01:44:41;;;;;;;15.85;14.4;;;;;;;17.14;77.95313;95656.62;;;;
2022/07/22 01:45:42;;;;;;;15.85;14.4;;;;;;;17.14;77.95313;95656.62;;;;
2022/07/22 01:46:43;;;;;;;15.85;14.4;;;;;;;17.14;77.95313;95656.62;;;;
2022/07/22 01:47:43;;;;;;;15.85;14.4;;;;;;;17.14;77.95313;95656.62;;;;
2022/07/22 01:48:44;;;;;;;15.85;14.4;;;;;;;17.14;77.95313;95656.62;;;;
2022/07/22 01:49:45;;;;;;;15.85;14.4;;;;;;;17.14;77.95313;95656.62;;;;
2022/07/22 01:50:45;;;;;;;15.85;14.4;;;;;;;17.14;77.95313;95656.62;;;;
2022/07/22 01:51:46;;;;;;;15.85;14.4;;;;;;;17.14;77.95313;95656.62;;;;
2022/07/22 01:52:47;;;;;;;15.85;14.4;;;;;;;17.14;77.95313;95656.62;;;;
2022/07/22 01:53:47;;;;;;;15.85;14.4;;;;;;;17.14;77.95313;95656.62;;;;
2022/07/22 01:54:48;;;;;;;15.85;14.4;;;;;;;17.14;77.95313;95656.62;;;;
2022/07/22 01:55:48;;;;;;;15.85;14.4;;;;;;;17.14;77.95313;95656.62;;;;
2022/07/22 01:56:49;;;;;;;16.85;15.25;;;;;;;16.91;78.27148;95650.12;;;;
2022/07/22 01:57:49;;;;;;;16.85;15.25;;;;;;;16.91;78.27148;95650.12;;;;
2022/07/22 01:58:50;;;;;;;16.85;15.25;;;;;;;16.91;78.27148;95650.12;;;;
2022/07/22 01:59:50;;;;;;;16.85;15.25;;;;;;;16.91;78.27148;95650.12;;;;
2022/07/22 02:00:51;;;;;;;16.85;15.25;;;;;;;16.91;78.27148;95650.12;;;;
2022/07/22 02:01:52;;;;;;;16.85;15.25;;;;;;;16.91;78.27148;95650.12;;;;
2022/07/22 02:02:52;;;;;;;16.85;15.25;;;;;;;16.91;78.27148;95650.12;;;;
2022/07/22 02:03:53;;;;;;;16.85;15.25;;;;;;;16.91;78.27148;95650.12;;;;
2022/07/22 02:04:53;;;;;;;16.85;15.25;;;;;;;16.91;78.27148;95650.12;;;;
2022/07/22 02:05:54;;;;;;;16.85;15.25;;;;;;;16.91;78.27148;95650.12;;;;
2022/07/22 02:06:54;;;;;;;16.15;14.6;;;;;;;16.77;78.4209;95654.14;;;;
2022/07/22 02:07:55;;;;;;;16.15;14.6;;;;;;;16.77;78.4209;95654.14;;;;
2022/07/22 02:09:00;;;;;;;16.15;14.6;;;;;;;16.77;78.4209;95654.14;;;;
2022/07/22 02:10:00;;;;;;;16.15;14.6;;;;;;;16.77;78.4209;95654.14;;;;
2022/07/22 02:11:03;;;;;;;16.15;14.6;;;;;;;16.77;78.4209;95654.14;;;;
2022/07/22 02:12:04;;;;;;;16.15;14.6;;;;;;;16.77;78.4209;95654.14;;;;
2022/07/22 02:13:05;;;;;;;16.15;14.6;;;;;;;16.77;78.4209;95654.14;;;;
2022/07/22 02:14:06;;;;;;;16.15;14.6;;;;;;;16.77;78.4209;95654.14;;;;
2022/07/22 02:15:06;;;;;;;16.15;14.6;;;;;;;16.77;78.4209;95654.14;;;;
2022/07/22 02:16:07;;;;;;;16.15;14.6;;;;;;;16.77;78.4209;95654.14;;;;
2022/07/22 02:17:08;;;;;;;16.15;14.6;;;;;;;16.77;78.4209;95654.14;;;;
2022/07/22 02:18:09;;;;;;;17.7;16;;;;;;;16.67;78.5459;95650.76;;;;
2022/07/22 02:19:11;;;;;;;17.7;16;;;;;;;16.67;78.5459;95650.76;;;;
2022/07/22 02:20:11;;;;;;;17.7;16;;;;;;;16.67;78.5459;95650.76;;;;
2022/07/22 02:21:12;;;;;;;17.7;16;;;;;;;16.67;78.5459;95650.76;;;;
2022/07/22 02:22:13;;;;;;;17.7;16;;;;;;;16.67;78.5459;95650.76;;;;
2022/07/22 02:23:13;;;;;;;17.7;16;;;;;;;16.67;78.5459;95650.76;;;;
2022/07/22 02:24:14;;;;;;;17.7;16;;;;;;;16.67;78.5459;95650.76;;;;
2022/07/22 02:25:14;;;;;;;17.7;16;;;;;;;16.67;78.5459;95650.76;;;;
2022/07/22 02:26:15;;;;;;;17.7;16;;;;;;;16.67;78.5459;95650.76;;;;
2022/07/22 02:27:16;;;;;;;17.7;16;;;;;;;16.67;78.5459;95650.76;;;;
2022/07/22 02:28:16;;;;;;;17.1;15.4;;;;;;;16.47;78.78223;95652.14;;;;
2022/07/22 02:29:17;;;;;;;17.1;15.4;;;;;;;16.47;78.78223;95652.14;;;;
2022/07/22 02:30:17;;;;;;;17.1;15.4;;;;;;;16.47;78.78223;95652.14;;;;
2022/07/22 02:31:20;;;;;;;17.1;15.4;;;;;;;16.47;78.78223;95652.14;;;;
2022/07/22 02:32:20;;;;;;;17.1;15.4;;;;;;;16.47;78.78223;95652.14;;;;
2022/07/22 02:33:21;;;;;;;17.1;15.4;;;;;;;16.47;78.78223;95652.14;;;;
2022/07/22 02:34:21;;;;;;;17.1;15.4;;;;;;;16.47;78.78223;95652.14;;;;
2022/07/22 02:35:22;;;;;;;17.1;15.4;;;;;;;16.47;78.78223;95652.14;;;;
2022/07/22 02:36:23;;;;;;;17.1;15.4;;;;;;;16.47;78.78223;95652.14;;;;
2022/07/22 02:37:23;;;;;;;17.1;15.4;;;;;;;16.47;78.78223;95652.14;;;;
2022/07/22 02:38:24;;;;;;;17.1;15.4;;;;;;;16.47;78.78223;95652.14;;;;
2022/07/22 02:39:24;;;;;;;17.55;15.8;;;;;;;16.33;78.95313;95645.45;;;;
2022/07/22 02:40:25;;;;;;;17.55;15.8;;;;;;;16.33;78.95313;95645.45;;;;
2022/07/22 02:41:26;;;;;;;17.55;15.8;;;;;;;16.33;78.95313;95645.45;;;;
2022/07/22 02:42:27;;;;;;;17.55;15.8;;;;;;;16.33;78.95313;95645.45;;;;
2022/07/22 02:43:27;;;;;;;17.55;15.8;;;;;;;16.33;78.95313;95645.45;;;;
2022/07/22 02:44:28;;;;;;;17.55;15.8;;;;;;;16.33;78.95313;95645.45;;;;
2022/07/22 02:45:29;;;;;;;17.55;15.8;;;;;;;16.33;78.95313;95645.45;;;;
2022/07/22 02:46:29;;;;;;;17.55;15.8;;;;;;;16.33;78.95313;95645.45;;;;
2022/07/22 02:47:30;;;;;;;17.55;15.8;;;;;;;16.33;78.95313;95645.45;;;;
2022/07/22 02:48:31;;;;;;;17.55;15.8;;;;;;;16.33;78.95313;95645.45;;;;
2022/07/22 02:49:31;;;;;;;17.6;15.9;;;;;;;16.08;79.20313;95654.69;;;;
2022/07/22 02:50:32;;;;;;;17.6;15.9;;;;;;;16.08;79.20313;95654.69;;;;
2022/07/22 02:51:32;;;;;;;17.6;15.9;;;;;;;16.08;79.20313;95654.69;;;;
2022/07/22 02:52:33;;;;;;;17.6;15.9;;;;;;;16.08;79.20313;95654.69;;;;
2022/07/22 02:53:33;;;;;;;17.6;15.9;;;;;;;16.08;79.20313;95654.69;;;;
2022/07/22 02:54:34;;;;;;;17.6;15.9;;;;;;;16.08;79.20313;95654.69;;;;
2022/07/22 02:55:34;;;;;;;17.6;15.9;;;;;;;16.08;79.20313;95654.69;;;;
2022/07/22 02:56:35;;;;;;;17.6;15.9;;;;;;;16.08;79.20313;95654.69;;;;
2022/07/22 02:57:36;;;;;;;17.6;15.9;;;;;;;16.08;79.20313;95654.69;;;;
2022/07/22 02:58:36;;;;;;;17.6;15.9;;;;;;;16.08;79.20313;95654.69;;;;
2022/07/22 02:59:37;;;;;;;17.6;15.9;;;;;;;16.08;79.20313;95654.69;;;;
2022/07/22 03:00:37;;;;;;;20.05;17.95;;;;;;;15.91;79.5;95658.23;;;;
2022/07/22 03:01:38;;;;;;;20.05;17.95;;;;;;;15.91;79.5;95658.23;;;;
2022/07/22 03:02:38;;;;;;;20.05;17.95;;;;;;;15.91;79.5;95658.23;;;;
2022/07/22 03:03:39;;;;;;;20.05;17.95;;;;;;;15.91;79.5;95658.23;;;;
2022/07/22 03:04:39;;;;;;;20.05;17.95;;;;;;;15.91;79.5;95658.23;;;;
2022/07/22 03:05:40;;;;;;;20.05;17.95;;;;;;;15.91;79.5;95658.23;;;;
2022/07/22 03:06:41;;;;;;;20.05;17.95;;;;;;;15.91;79.5;95658.23;;;;
2022/07/22 03:07:41;;;;;;;20.05;17.95;;;;;;;15.91;79.5;95658.23;;;;
2022/07/22 03:08:42;;;;;;;20.05;17.95;;;;;;;15.91;79.5;95658.23;;;;
2022/07/22 03:09:43;;;;;;;20.05;17.95;;;;;;;15.91;79.5;95658.23;;;;
2022/07/22 03:10:43;;;;;;;20.15;18.35;;;;;;;15.73;79.77051;95658.48;;;;
2022/07/22 03:11:44;;;;;;;20.15;18.35;;;;;;;15.73;79.77051;95658.48;;;;
2022/07/22 03:12:45;;;;;;;20.15;18.35;;;;;;;15.73;79.77051;95658.48;;;;
2022/07/22 03:13:45;;;;;;;20.15;18.35;;;;;;;15.73;79.77051;95658.48;;;;
2022/07/22 03:14:46;;;;;;;20.15;18.35;;;;;;;15.73;79.77051;95658.48;;;;
2022/07/22 03:15:46;;;;;;;20.15;18.35;;;;;;;15.73;79.77051;95658.48;;;;
2022/07/22 03:16:47;;;;;;;20.15;18.35;;;;;;;15.73;79.77051;95658.48;;;;
2022/07/22 03:17:47;;;;;;;20.15;18.35;;;;;;;15.73;79.77051;95658.48;;;;
2022/07/22 03:18:48;;;;;;;20.15;18.35;;;;;;;15.73;79.77051;95658.48;;;;
2022/07/22 03:19:49;;;;;;;20.15;18.35;;;;;;;15.73;79.77051;95658.48;;;;
2022/07/22 03:20:49;;;;;;;20.15;18.35;;;;;;;15.73;79.77051;95658.48;;;;
2022/07/22 03:21:50;;;;;;;19.75;18;;;;;;;15.62;80.04297;95657.98;;;;
2022/07/22 03:22:50;;;;;;;19.75;18;;;;;;;15.62;80.04297;95657.98;;;;
2022/07/22 03:23:53;;;;;;;19.75;18;;;;;;;15.62;80.04297;95657.98;;;;
2022/07/22 03:24:54;;;;;;;19.75;18;;;;;;;15.62;80.04297;95657.98;;;;
2022/07/22 03:25:54;;;;;;;19.75;18;;;;;;;15.62;80.04297;95657.98;;;;
2022/07/22 03:26:55;;;;;;;19.75;18;;;;;;;15.62;80.04297;95657.98;;;;
2022/07/22 03:27:56;;;;;;;19.75;18;;;;;;;15.62;80.04297;95657.98;;;;
2022/07/22 03:28:56;;;;;;;19.75;18;;;;;;;15.62;80.04297;95657.98;;;;
2022/07/22 03:29:57;;;;;;;19.75;18;;;;;;;15.62;80.04297;95657.98;;;;
2022/07/22 03:30:57;;;;;;;19.75;18;;;;;;;15.62;80.04297;95657.98;;;;
2022/07/22 03:31:58;;;;;;;20.5;18.6;;;;;;;15.48;80.29102;95655.14;;;;
2022/07/22 03:32:58;;;;;;;20.5;18.6;;;;;;;15.48;80.29102;95655.14;;;;
2022/07/22 03:34:00;;;;;;;20.5;18.6;;;;;;;15.48;80.29102;95655.14;;;;
2022/07/22 03:35:01;;;;;;;20.5;18.6;;;;;;;15.48;80.29102;95655.14;;;;
2022/07/22 03:36:02;;;;;;;20.5;18.6;;;;;;;15.48;80.29102;95655.14;;;;
2022/07/22 03:37:03;;;;;;;20.5;18.6;;;;;;;15.48;80.29102;95655.14;;;;
2022/07/22 03:38:03;;;;;;;20.5;18.6;;;;;;;15.48;80.29102;95655.14;;;;
2022/07/22 03:39:04;;;;;;;20.5;18.6;;;;;;;15.48;80.29102;95655.14;;;;
2022/07/22 03:40:04;;;;;;;20.5;18.6;;;;;;;15.48;80.29102;95655.14;;;;
2022/07/22 03:41:06;;;;;;;20.5;18.6;;;;;;;15.48;80.29102;95655.14;;;;
2022/07/22 03:42:06;;;;;;;20.5;18.6;;;;;;;15.48;80.29102;95655.14;;;;
2022/07/22 03:43:06;;;;;;;20.7;18.6;;;;;;;15.46;80.53809;95658.59;;;;
2022/07/22 03:44:07;;;;;;;20.7;18.6;;;;;;;15.46;80.53809;95658.59;;;;
2022/07/22 03:45:07;;;;;;;20.7;18.6;;;;;;;15.46;80.53809;95658.59;;;;
2022/07/22 03:46:09;;;;;;;20.7;18.6;;;;;;;15.46;80.53809;95658.59;;;;
2022/07/22 03:47:09;;;;;;;20.7;18.6;;;;;;;15.46;80.53809;95658.59;;;;
2022/07/22 03:48:10;;;;;;;20.7;18.6;;;;;;;15.46;80.53809;95658.59;;;;
2022/07/22 03:49:10;;;;;;;20.7;18.6;;;;;;;15.46;80.53809;95658.59;;;;
2022/07/22 03:50:11;;;;;;;20.7;18.6;;;;;;;15.46;80.53809;95658.59;;;;
2022/07/22 03:51:11;;;;;;;20.7;18.6;;;;;;;15.46;80.53809;95658.59;;;;
2022/07/22 03:52:12;;;;;;;20.7;18.6;;;;;;;15.46;80.53809;95658.59;;;;
2022/07/22 03:53:13;;;;;;;20.35;18.25;;;;;;;15.41;80.69043;95660.72;;;;
2022/07/22 03:54:13;;;;;;;20.35;18.25;;;;;;;15.41;80.69043;95660.72;;;;
2022/07/22 03:55:14;;;;;;;20.35;18.25;;;;;;;15.41;80.69043;95660.72;;;;
2022/07/22 03:56:15;;;;;;;20.35;18.25;;;;;;;15.41;80.69043;95660.72;;;;
2022/07/22 03:57:16;;;;;;;20.35;18.25;;;;;;;15.41;80.69043;95660.72;;;;
2022/07/22 03:58:16;;;;;;;20.35;18.25;;;;;;;15.41;80.69043;95660.72;;;;
2022/07/22 03:59:17;;;;;;;20.35;18.25;;;;;;;15.41;80.69043;95660.72;;;;
2022/07/22 04:00:18;;;;;;;20.35;18.25;;;;;;;15.41;80.69043;95660.72;;;;
2022/07/22 04:01:18;;;;;;;20.35;18.25;;;;;;;15.41;80.69043;95660.72;;;;
2022/07/22 04:02:19;;;;;;;20.35;18.25;;;;;;;15.41;80.69043;95660.72;;;;
2022/07/22 04:03:20;;;;;;;20.35;18.25;;;;;;;15.41;80.69043;95660.72;;;;
2022/07/22 04:04:21;;;;;;;20.35;18.45;;;;;;;15.46;80.80762;95666.69;;;;
2022/07/22 04:05:21;;;;;;;20.35;18.45;;;;;;;15.46;80.80762;95666.69;;;;
2022/07/22 04:06:22;;;;;;;20.35;18.45;;;;;;;15.46;80.80762;95666.69;;;;
2022/07/22 04:07:22;;;;;;;20.35;18.45;;;;;;;15.46;80.80762;95666.69;;;;
2022/07/22 04:08:23;;;;;;;20.35;18.45;;;;;;;15.46;80.80762;95666.69;;;;
2022/07/22 04:09:23;;;;;;;20.35;18.45;;;;;;;15.46;80.80762;95666.69;;;;
2022/07/22 04:10:24;;;;;;;20.35;18.45;;;;;;;15.46;80.80762;95666.69;;;;
2022/07/22 04:11:24;;;;;;;20.35;18.45;;;;;;;15.46;80.80762;95666.69;;;;
2022/07/22 04:12:25;;;;;;;20.35;18.45;;;;;;;15.46;80.80762;95666.69;;;;
2022/07/22 04:13:26;;;;;;;20.35;18.45;;;;;;;15.46;80.80762;95666.69;;;;
2022/07/22 04:14:26;;;;;;;20.35;18.45;;;;;;;15.46;80.80762;95666.69;;;;
2022/07/22 04:15:27;;;;;;;20.35;18.4;;;;;;;15.45;80.88379;95659.61;;;;
2022/07/22 04:16:27;;;;;;;20.35;18.4;;;;;;;15.45;80.88379;95659.61;;;;
2022/07/22 04:17:28;;;;;;;20.35;18.4;;;;;;;15.45;80.88379;95659.61;;;;
2022/07/22 04:18:28;;;;;;;20.35;18.4;;;;;;;15.45;80.88379;95659.61;;;;
2022/07/22 04:19:30;;;;;;;20.35;18.4;;;;;;;15.45;80.88379;95659.61;;;;
2022/07/22 04:20:30;;;;;;;20.35;18.4;;;;;;;15.45;80.88379;95659.61;;;;
2022/07/22 04:21:31;;;;;;;20.35;18.4;;;;;;;15.45;80.88379;95659.61;;;;
2022/07/22 04:22:31;;;;;;;20.35;18.4;;;;;;;15.45;80.88379;95659.61;;;;
2022/07/22 04:23:32;;;;;;;20.35;18.4;;;;;;;15.45;80.88379;95659.61;;;;
2022/07/22 04:24:32;;;;;;;20.35;18.4;;;;;;;15.45;80.88379;95659.61;;;;
2022/07/22 04:25:33;;;;;;;21.25;19.15;;;;;;;15.54;80.96387;95661.41;;;;
2022/07/22 04:26:34;;;;;;;21.25;19.15;;;;;;;15.54;80.96387;95661.41;;;;
2022/07/22 04:27:34;;;;;;;21.25;19.15;;;;;;;15.54;80.96387;95661.41;;;;
2022/07/22 04:28:35;;;;;;;21.25;19.15;;;;;;;15.54;80.96387;95661.41;;;;
2022/07/22 04:29:36;;;;;;;21.25;19.15;;;;;;;15.54;80.96387;95661.41;;;;
2022/07/22 04:30:36;;;;;;;21.25;19.15;;;;;;;15.54;80.96387;95661.41;;;;
2022/07/22 04:31:37;;;;;;;21.25;19.15;;;;;;;15.54;80.96387;95661.41;;;;
2022/07/22 04:32:37;;;;;;;21.25;19.15;;;;;;;15.54;80.96387;95661.41;;;;
2022/07/22 04:33:38;;;;;;;21.25;19.15;;;;;;;15.54;80.96387;95661.41;;;;
2022/07/22 04:34:38;;;;;;;21.25;19.15;;;;;;;15.54;80.96387;95661.41;;;;
2022/07/22 04:35:39;;;;;;;21.25;19.15;;;;;;;15.54;80.96387;95661.41;;;;
2022/07/22 04:36:39;;;;;;;20.45;18.6;;;;;;;15.65;81.00488;95660.17;;;;
2022/07/22 04:37:40;;;;;;;20.45;18.6;;;;;;;15.65;81.00488;95660.17;;;;
2022/07/22 04:38:40;;;;;;;20.45;18.6;;;;;;;15.65;81.00488;95660.17;;;;
2022/07/22 04:39:41;;;;;;;20.45;18.6;;;;;;;15.65;81.00488;95660.17;;;;
2022/07/22 04:40:41;;;;;;;20.45;18.6;;;;;;;15.65;81.00488;95660.17;;;;
2022/07/22 04:41:41;;;;;;;20.45;18.6;;;;;;;15.65;81.00488;95660.17;;;;
2022/07/22 04:42:42;;;;;;;20.45;18.6;;;;;;;15.65;81.00488;95660.17;;;;
2022/07/22 04:43:43;;;;;;;20.45;18.6;;;;;;;15.65;81.00488;95660.17;;;;
2022/07/22 04:44:44;;;;;;;20.45;18.6;;;;;;;15.65;81.00488;95660.17;;;;
2022/07/22 04:45:45;;;;;;;20.45;18.6;;;;;;;15.65;81.00488;95660.17;;;;
2022/07/22 04:46:45;;;;;;;21.3;19.05;;;;;;;15.84;80.98633;95656.31;;;;
2022/07/22 04:47:45;;;;;;;21.3;19.05;;;;;;;15.84;80.98633;95656.31;;;;
2022/07/22 04:48:46;;;;;;;21.3;19.05;;;;;;;15.84;80.98633;95656.31;;;;
2022/07/22 04:49:46;;;;;;;21.3;19.05;;;;;;;15.84;80.98633;95656.31;;;;
2022/07/22 04:50:47;;;;;;;21.3;19.05;;;;;;;15.84;80.98633;95656.31;;;;
2022/07/22 04:51:47;;;;;;;21.3;19.05;;;;;;;15.84;80.98633;95656.31;;;;
2022/07/22 04:52:48;;;;;;;21.3;19.05;;;;;;;15.84;80.98633;95656.31;;;;
2022/07/22 04:53:48;;;;;;;21.3;19.05;;;;;;;15.84;80.98633;95656.31;;;;
2022/07/22 04:54:49;;;;;;;21.3;19.05;;;;;;;15.84;80.98633;95656.31;;;;
2022/07/22 04:55:49;;;;;;;21.3;19.05;;;;;;;15.84;80.98633;95656.31;;;;
2022/07/22 04:56:50;;;;;;;21.3;19.05;;;;;;;15.84;80.98633;95656.31;;;;
2022/07/22 04:57:50;;;;;;;22.35;20.05;;;;;;;16.06;80.94043;95654.14;;;;
2022/07/22 04:58:51;;;;;;;22.35;20.05;;;;;;;16.06;80.94043;95654.14;;;;
2022/07/22 04:59:51;;;;;;;22.35;20.05;;;;;;;16.06;80.94043;95654.14;;;;
2022/07/22 05:00:52;;;;;;;22.35;20.05;;;;;;;16.06;80.94043;95654.14;;;;
2022/07/22 05:01:53;;;;;;;22.35;20.05;;;;;;;16.06;80.94043;95654.14;;;;
2022/07/22 05:02:53;;;;;;;22.35;20.05;;;;;;;16.06;80.94043;95654.14;;;;
2022/07/22 05:03:54;;;;;;;22.35;20.05;;;;;;;16.06;80.94043;95654.14;;;;
2022/07/22 05:04:55;;;;;;;22.35;20.05;;;;;;;16.06;80.94043;95654.14;;;;
2022/07/22 05:05:55;;;;;;;22.35;20.05;;;;;;;16.06;80.94043;95654.14;;;;
2022/07/22 05:06:56;;;;;;;22.35;20.05;;;;;;;16.06;80.94043;95654.14;;;;
2022/07/22 05:07:56;;;;;;;20.95;18.9;;;;;;;16.49;80.83398;95647.89;;;;
2022/07/22 05:08:57;;;;;;;20.95;18.9;;;;;;;16.49;80.83398;95647.89;;;;
2022/07/22 05:09:57;;;;;;;20.95;18.9;;;;;;;16.49;80.83398;95647.89;;;;
2022/07/22 05:10:58;;;;;;;20.95;18.9;;;;;;;16.49;80.83398;95647.89;;;;
2022/07/22 05:11:58;;;;;;;20.95;18.9;;;;;;;16.49;80.83398;95647.89;;;;
2022/07/22 05:12:59;;;;;;;20.95;18.9;;;;;;;16.49;80.83398;95647.89;;;;
2022/07/22 05:13:59;;;;;;;20.95;18.9;;;;;;;16.49;80.83398;95647.89;;;;
2022/07/22 05:15:00;;;;;;;20.95;18.9;;;;;;;16.49;80.83398;95647.89;;;;
2022/07/22 05:16:01;;;;;;;20.95;18.9;;;;;;;16.49;80.83398;95647.89;;;;
2022/07/22 05:17:02;;;;;;;20.95;18.9;;;;;;;16.49;80.83398;95647.89;;;;
2022/07/22 05:18:08;;;;;;;20.95;18.9;;;;;;;16.49;80.83398;95647.89;;;;
2022/07/22 05:19:08;;;;;;;19.8;17.85;;;;;;;16.94;80.5332;95649.64;;;;
2022/07/22 05:20:09;;;;;;;19.8;17.85;;;;;;;16.94;80.5332;95649.64;;;;
2022/07/22 05:21:10;;;;;;;19.8;17.85;;;;;;;16.94;80.5332;95649.64;;;;
2022/07/22 05:22:11;;;;;;;19.8;17.85;;;;;;;16.94;80.5332;95649.64;;;;
2022/07/22 05:23:11;;;;;;;19.8;17.85;;;;;;;16.94;80.5332;95649.64;;;;
2022/07/22 05:24:12;;;;;;;19.8;17.85;;;;;;;16.94;80.5332;95649.64;;;;
2022/07/22 05:25:13;;;;;;;19.8;17.85;;;;;;;16.94;80.5332;95649.64;;;;
2022/07/22 05:26:14;;;;;;;19.8;17.85;;;;;;;16.94;80.5332;95649.64;;;;
2022/07/22 05:27:14;;;;;;;19.8;17.85;;;;;;;16.94;80.5332;95649.64;;;;
2022/07/22 05:28:14;;;;;;;19.8;17.85;;;;;;;16.94;80.5332;95649.64;;;;
2022/07/22 05:29:15;;;;;;;18.6;16.7;;;;;;;17.56;80.13281;95641.38;;;;
2022/07/22 05:30:15;;;;;;;18.6;16.7;;;;;;;17.56;80.13281;95641.38;;;;
2022/07/22 05:31:16;;;;;;;18.6;16.7;;;;;;;17.56;80.13281;95641.38;;;;
2022/07/22 05:32:16;;;;;;;18.6;16.7;;;;;;;17.56;80.13281;95641.38;;;;
2022/07/22 05:33:17;;;;;;;18.6;16.7;;;;;;;17.56;80.13281;95641.38;;;;
2022/07/22 05:34:17;;;;;;;18.6;16.7;;;;;;;17.56;80.13281;95641.38;;;;
2022/07/22 05:35:18;;;;;;;18.6;16.7;;;;;;;17.56;80.13281;95641.38;;;;
2022/07/22 05:36:19;;;;;;;18.6;16.7;;;;;;;17.56;80.13281;95641.38;;;;
2022/07/22 05:37:20;;;;;;;18.6;16.7;;;;;;;17.56;80.13281;95641.38;;;;
2022/07/22 05:38:20;;;;;;;18.6;16.7;;;;;;;17.56;80.13281;95641.38;;;;
2022/07/22 05:39:21;;;;;;;18.6;16.7;;;;;;;17.56;80.13281;95641.38;;;;